createdAt,value
2023-01-12T00:02:22.507Z,95.50
2023-01-12T00:04:50.266Z,96.70
2023-01-12T00:07:18.185Z,95.90
2023-01-12T00:09:45.822Z,96.40
2023-01-12T00:12:13.497Z,96.00
2023-01-12T00:14:41.132Z,95.50
2023-01-12T00:17:09.190Z,95.80
2023-01-12T00:19:38.774Z,95.80
2023-01-12T00:22:11.566Z,95.80
2023-01-12T00:24:49.562Z,95.20
2023-01-12T00:27:20.111Z,94.40
2023-01-12T00:29:49.655Z,95.40
2023-01-12T00:32:20.407Z,94.80
2023-01-12T00:34:47.947Z,94.90
2023-01-12T00:37:15.534Z,95.30
2023-01-12T00:39:53.068Z,94.00
2023-01-12T00:42:46.523Z,93.20
2023-01-12T00:45:23.269Z,93.80
2023-01-12T00:47:51.454Z,94.30
2023-01-12T00:50:19.769Z,93.80
2023-01-12T00:52:47.384Z,93.10
2023-01-12T00:55:14.972Z,93.30
2023-01-12T00:57:42.764Z,93.60
2023-01-12T01:00:11.061Z,93.70
2023-01-12T01:02:38.616Z,93.90
2023-01-12T01:05:06.494Z,93.30
2023-01-12T01:07:34.664Z,93.70
2023-01-12T01:10:02.161Z,93.70
2023-01-12T01:12:29.705Z,94.40
2023-01-12T01:14:57.192Z,94.20
2023-01-12T01:17:24.693Z,93.30
2023-01-12T01:19:52.196Z,94.00
2023-01-12T01:22:19.745Z,93.50
2023-01-12T01:24:50.205Z,92.80
2023-01-12T01:27:17.679Z,93.00
2023-01-12T01:29:45.279Z,92.50
2023-01-12T01:32:12.775Z,92.40
2023-01-12T01:34:41.081Z,92.60
2023-01-12T01:37:08.540Z,92.90
2023-01-12T01:39:36.053Z,93.00
2023-01-12T01:42:03.601Z,92.90
2023-01-12T01:44:30.969Z,92.70
2023-01-12T01:47:08.306Z,92.30
2023-01-12T01:49:44.888Z,92.90
2023-01-12T01:52:25.409Z,92.20
2023-01-12T01:55:13.937Z,92.50
2023-01-12T01:58:06.965Z,91.70
2023-01-12T02:03:21.487Z,92.20
2023-01-12T02:05:51.059Z,91.50
2023-01-12T02:08:32.033Z,91.30
2023-01-12T02:11:01.314Z,91.50
2023-01-12T02:13:49.815Z,90.90
2023-01-12T02:16:27.717Z,92.50
2023-01-12T02:19:22.652Z,90.90
2023-01-12T02:21:59.373Z,91.40
2023-01-12T02:24:51.361Z,92.10
2023-01-12T02:27:52.598Z,91.80
2023-01-12T02:31:03.045Z,90.80
2023-01-12T02:33:48.881Z,92.00
2023-01-12T02:36:30.850Z,91.70
2023-01-12T02:39:29.764Z,91.80
2023-01-12T02:42:31.376Z,91.70
2023-01-12T02:45:33.120Z,91.10
2023-01-12T02:48:21.749Z,91.00
2023-01-12T02:51:13.537Z,91.30
2023-01-12T02:53:51.953Z,91.00
2023-01-12T02:56:44.030Z,91.20
2023-01-12T02:59:27.904Z,91.20
2023-01-12T03:02:01.375Z,91.20
2023-01-12T03:04:31.626Z,91.00
2023-01-12T03:06:58.964Z,91.20
2023-01-12T03:09:38.579Z,91.10
2023-01-12T03:12:14.507Z,91.40
2023-01-12T03:14:47.083Z,91.20
2023-01-12T03:17:31.013Z,91.20
2023-01-12T03:20:30.058Z,91.00
2023-01-12T03:23:11.660Z,91.20
2023-01-12T03:25:43.964Z,91.60
2023-01-12T03:28:17.202Z,91.20
2023-01-12T03:30:56.480Z,91.50
2023-01-12T03:33:26.041Z,90.80
2023-01-12T03:36:29.596Z,91.60
2023-01-12T03:39:14.687Z,90.70
2023-01-12T03:42:07.669Z,91.10
2023-01-12T03:45:09.625Z,90.40
2023-01-12T03:47:40.392Z,90.50
2023-01-12T03:50:16.568Z,90.20
2023-01-12T03:52:46.019Z,90.60
2023-01-12T03:55:19.603Z,89.30
2023-01-12T03:57:49.210Z,90.70
2023-01-12T04:00:20.225Z,90.70
2023-01-12T04:02:47.707Z,90.30
2023-01-12T04:05:16.296Z,90.60
2023-01-12T04:07:43.793Z,90.10
2023-01-12T04:10:11.592Z,89.60
2023-01-12T04:12:39.135Z,89.70
2023-01-12T04:15:07.239Z,89.90
2023-01-12T04:17:34.761Z,89.80
2023-01-12T04:20:02.773Z,89.80
2023-01-12T04:22:45.432Z,89.60
2023-01-12T04:25:20.032Z,89.40
2023-01-12T04:28:04.250Z,89.00
2023-01-12T04:30:33.911Z,88.70
2023-01-12T04:33:09.169Z,89.40
2023-01-12T04:35:36.693Z,88.40
2023-01-12T04:38:08.632Z,88.60
2023-01-12T04:40:36.135Z,88.30
2023-01-12T04:43:08.686Z,88.40
2023-01-12T04:45:41.454Z,89.00
2023-01-12T04:48:12.456Z,88.60
2023-01-12T04:50:41.109Z,87.90
2023-01-12T04:53:11.066Z,88.10
2023-01-12T04:55:41.571Z,87.70
2023-01-12T04:58:09.363Z,87.00
2023-01-12T05:00:36.862Z,86.50
2023-01-12T05:03:04.463Z,86.30
2023-01-12T05:05:33.539Z,86.60
2023-01-12T05:08:22.240Z,86.10
2023-01-12T05:10:51.684Z,86.20
2023-01-12T05:13:20.113Z,85.20
2023-01-12T05:15:47.618Z,85.50
2023-01-12T05:18:15.742Z,85.40
2023-01-12T05:20:43.247Z,85.00
2023-01-12T05:23:10.949Z,84.70
2023-01-12T05:25:38.431Z,85.00
2023-01-12T05:28:05.962Z,85.00
2023-01-12T05:30:33.507Z,85.00
2023-01-12T05:33:01.079Z,85.30
2023-01-12T05:35:28.575Z,84.60
2023-01-12T05:37:56.803Z,84.80
2023-01-12T05:40:24.784Z,84.60
2023-01-12T05:43:11.200Z,84.60
2023-01-12T05:45:38.759Z,85.10
2023-01-12T05:48:06.641Z,85.10
2023-01-12T05:50:34.125Z,85.00
2023-01-12T05:53:10.610Z,84.70
2023-01-12T05:55:38.808Z,84.30
2023-01-12T05:58:06.366Z,84.00
2023-01-12T06:00:33.946Z,84.10
2023-01-12T06:03:02.979Z,83.70
2023-01-12T06:05:30.557Z,84.10
2023-01-12T06:07:58.517Z,84.20
2023-01-12T06:10:26.739Z,83.50
2023-01-12T06:13:13.089Z,83.50
2023-01-12T06:15:40.653Z,84.10
2023-01-12T06:18:08.152Z,84.10
2023-01-12T06:20:35.668Z,83.70
2023-01-12T06:23:07.404Z,83.90
2023-01-12T06:25:34.908Z,83.80
2023-01-12T06:28:04.891Z,84.00
2023-01-12T06:30:32.364Z,84.10
2023-01-12T06:33:03.008Z,83.90
2023-01-12T06:35:30.559Z,83.90
2023-01-12T06:37:58.263Z,84.40
2023-01-12T06:40:25.756Z,84.60
2023-01-12T06:42:53.325Z,84.80
2023-01-12T06:45:20.845Z,84.50
2023-01-12T06:47:50.487Z,84.30
2023-01-12T06:50:18.135Z,84.70
2023-01-12T06:52:45.632Z,84.90
2023-01-12T06:55:13.382Z,84.80
2023-01-12T06:57:40.900Z,85.20
2023-01-12T07:00:09.768Z,85.00
2023-01-12T07:02:37.308Z,84.70
2023-01-12T07:05:05.780Z,85.20
2023-01-12T07:07:33.269Z,86.10
2023-01-12T07:10:00.748Z,85.50
2023-01-12T07:12:28.282Z,85.70
2023-01-12T07:14:58.777Z,85.50
2023-01-12T07:17:26.249Z,85.90
2023-01-12T07:19:53.733Z,85.60
2023-01-12T07:22:21.239Z,86.00
2023-01-12T07:24:48.781Z,86.30
2023-01-12T07:27:16.285Z,86.20
2023-01-12T07:29:43.801Z,86.10
2023-01-12T07:32:11.316Z,86.20
2023-01-12T07:34:38.883Z,86.20
2023-01-12T07:37:06.885Z,86.00
2023-01-12T07:39:34.358Z,86.30
2023-01-12T07:42:20.205Z,86.10
2023-01-12T07:44:47.680Z,86.10
2023-01-12T07:47:15.287Z,86.10
2023-01-12T07:49:42.853Z,86.30
2023-01-12T07:52:14.482Z,86.00
2023-01-12T07:54:42.041Z,85.70
2023-01-12T07:57:11.526Z,86.20
2023-01-12T07:59:39.508Z,86.20
2023-01-12T08:02:13.790Z,85.90
2023-01-12T08:04:42.054Z,85.70
2023-01-12T08:07:10.282Z,85.50
2023-01-12T08:09:38.094Z,85.40
2023-01-12T08:12:06.024Z,85.50
2023-01-12T08:14:39.091Z,85.40
2023-01-12T08:17:16.357Z,85.50
2023-01-12T08:19:55.245Z,86.00
2023-01-12T08:22:30.634Z,85.30
2023-01-12T08:25:06.549Z,84.60
2023-01-12T08:27:39.061Z,85.50
2023-01-12T08:30:08.670Z,86.60
2023-01-12T08:32:37.696Z,85.40
2023-01-12T08:35:06.128Z,85.30
2023-01-12T08:37:35.240Z,84.70
2023-01-12T08:40:05.341Z,84.30
2023-01-12T08:42:32.853Z,84.60
2023-01-12T08:45:00.402Z,84.50
2023-01-12T08:47:30.270Z,84.80
2023-01-12T08:50:00.177Z,84.90
2023-01-12T08:52:29.486Z,85.20
2023-01-12T08:54:57.021Z,85.10
2023-01-12T08:57:24.584Z,85.10
2023-01-12T08:59:52.194Z,85.10
2023-01-12T09:02:19.998Z,85.10
2023-01-12T09:04:49.006Z,84.90
2023-01-12T09:07:17.069Z,85.00
2023-01-12T09:09:44.588Z,85.20
2023-01-12T09:12:12.074Z,84.70
2023-01-12T09:14:39.755Z,85.40
2023-01-12T09:17:07.710Z,85.10
2023-01-12T09:19:35.182Z,85.30
2023-01-12T09:22:02.725Z,85.10
2023-01-12T09:24:30.282Z,85.70
2023-01-12T09:26:57.828Z,85.50
2023-01-12T09:29:25.332Z,85.20
2023-01-12T09:31:52.924Z,84.70
2023-01-12T09:34:20.439Z,84.90
2023-01-12T09:36:48.801Z,85.30
2023-01-12T09:39:32.513Z,85.10
2023-01-12T09:42:18.969Z,84.90
2023-01-12T09:45:08.932Z,84.40
2023-01-12T09:47:56.217Z,84.50
2023-01-12T09:50:46.288Z,84.30
2023-01-12T09:53:41.039Z,84.50
2023-01-12T09:56:08.507Z,84.20
2023-01-12T09:59:09.003Z,84.20
2023-01-12T10:01:37.575Z,83.40
2023-01-12T10:04:06.369Z,83.90
2023-01-12T10:06:35.592Z,83.90
2023-01-12T10:09:13.389Z,84.00
2023-01-12T10:12:08.731Z,82.10
2023-01-12T10:14:58.042Z,82.40
2023-01-12T10:18:02.574Z,82.10
2023-01-12T10:20:41.785Z,82.00
2023-01-12T10:23:09.264Z,81.50
2023-01-12T10:25:50.567Z,81.80
2023-01-12T10:28:24.701Z,81.80
2023-01-12T10:30:56.203Z,80.90
2023-01-12T10:33:27.755Z,81.90
2023-01-12T10:36:14.164Z,81.00
2023-01-12T10:38:59.455Z,79.30
2023-01-12T10:41:29.113Z,79.40
2023-01-12T10:43:56.466Z,79.60
2023-01-12T10:46:27.420Z,79.60
2023-01-12T10:49:17.949Z,79.00
2023-01-12T10:51:53.625Z,79.30
2023-01-12T10:54:34.403Z,78.40
2023-01-12T10:57:03.492Z,77.30
2023-01-12T10:59:38.384Z,77.80
2023-01-12T11:02:06.813Z,76.80
2023-01-12T11:04:50.212Z,77.80
2023-01-12T11:07:29.335Z,77.60
2023-01-12T11:10:25.821Z,76.60
2023-01-12T11:13:06.210Z,77.50
2023-01-12T11:15:38.864Z,76.20
2023-01-12T11:18:40.787Z,77.20
2023-01-12T11:21:13.002Z,76.50
2023-01-12T11:24:02.700Z,76.70
2023-01-12T11:26:46.074Z,76.40
2023-01-12T11:29:56.811Z,76.60
2023-01-12T11:32:54.788Z,75.60
2023-01-12T11:35:44.163Z,75.30
2023-01-12T11:38:27.516Z,75.30
2023-01-12T11:40:58.383Z,75.70
2023-01-12T11:43:50.437Z,75.00
2023-01-12T11:46:55.997Z,74.80
2023-01-12T11:49:46.264Z,74.20
2023-01-12T11:52:16.264Z,74.60
2023-01-12T11:54:44.157Z,75.30
2023-01-12T11:57:52.903Z,73.40
2023-01-12T12:00:49.219Z,72.80
2023-01-12T12:03:44.600Z,72.60
2023-01-12T12:06:48.673Z,72.50
2023-01-12T12:09:44.306Z,72.20
2023-01-12T12:12:24.463Z,72.90
2023-01-12T12:15:28.069Z,74.40
2023-01-12T12:18:25.865Z,73.40
2023-01-12T12:21:44.115Z,74.30
2023-01-12T12:24:46.882Z,73.20
2023-01-12T12:27:38.388Z,73.90
2023-01-12T12:30:33.912Z,73.60
2023-01-12T12:33:54.538Z,73.60
2023-01-12T12:36:39.899Z,74.20
2023-01-12T12:39:16.307Z,73.80
2023-01-12T12:42:39.479Z,74.60
2023-01-12T12:45:37.174Z,74.10
2023-01-12T12:48:37.524Z,75.40
2023-01-12T12:51:13.231Z,74.80
2023-01-12T12:53:50.814Z,74.80
2023-01-12T12:56:22.814Z,75.00
2023-01-12T12:58:52.104Z,75.30
2023-01-12T13:01:27.104Z,75.30
2023-01-12T13:04:06.088Z,74.90
2023-01-12T13:06:49.391Z,75.50
2023-01-12T13:09:16.745Z,75.30
2023-01-12T13:12:00.023Z,75.80
2023-01-12T13:14:40.124Z,75.50
2023-01-12T13:17:19.883Z,75.60
2023-01-12T13:20:02.061Z,75.40
2023-01-12T13:22:39.763Z,75.40
2023-01-12T13:25:16.614Z,75.60
2023-01-12T13:27:49.742Z,76.10
2023-01-12T13:30:29.183Z,76.30
2023-01-12T13:33:17.395Z,76.00
2023-01-12T13:35:45.072Z,76.30
2023-01-12T13:38:33.846Z,75.80
2023-01-12T13:41:13.552Z,76.30
2023-01-12T13:43:57.730Z,76.20
2023-01-12T13:46:35.740Z,76.60
2023-01-12T13:49:18.829Z,76.60
2023-01-12T13:52:00.816Z,77.00
2023-01-12T13:54:28.963Z,76.80
2023-01-12T13:57:16.877Z,77.50
2023-01-12T14:00:18.984Z,77.20
2023-01-12T14:02:46.605Z,77.20
2023-01-12T14:05:46.652Z,77.50
2023-01-12T14:08:51.961Z,77.30
2023-01-12T14:11:54.664Z,77.40
2023-01-12T14:15:10.854Z,77.40
2023-01-12T14:17:50.240Z,77.70
2023-01-12T14:20:27.902Z,77.40
2023-01-12T14:23:30.696Z,77.50
2023-01-12T14:26:10.342Z,77.40
2023-01-12T14:28:44.715Z,77.70
2023-01-12T14:31:39.583Z,78.00
2023-01-12T14:34:22.004Z,78.10
2023-01-12T14:36:49.756Z,78.10
2023-01-12T14:39:23.805Z,78.10
2023-01-12T14:42:15.380Z,78.20
2023-01-12T14:45:14.845Z,77.80
2023-01-12T14:47:42.604Z,77.80
2023-01-12T14:50:13.086Z,78.00
2023-01-12T14:52:48.104Z,77.70
2023-01-12T14:55:24.702Z,77.80
2023-01-12T14:58:00.127Z,77.70
2023-01-12T15:00:32.567Z,77.60
2023-01-12T15:03:02.353Z,77.60
2023-01-12T15:05:33.423Z,77.40
2023-01-12T15:08:26.696Z,77.40
2023-01-12T15:11:09.436Z,77.20
2023-01-12T15:13:38.069Z,77.20
2023-01-12T15:16:25.362Z,77.30
2023-01-12T15:19:11.821Z,77.30
2023-01-12T15:22:01.487Z,77.10
2023-01-12T15:24:50.413Z,76.70
2023-01-12T15:27:22.611Z,77.30
2023-01-12T15:29:50.672Z,78.20
2023-01-12T15:32:41.457Z,77.40
2023-01-12T15:35:23.951Z,77.40
2023-01-12T15:37:55.068Z,77.30
2023-01-12T15:40:24.540Z,77.30
2023-01-12T15:42:53.482Z,77.30
2023-01-12T15:45:39.688Z,77.20
2023-01-12T15:48:08.378Z,77.10
2023-01-12T15:50:42.213Z,77.20
2023-01-12T15:53:12.364Z,77.00
2023-01-12T15:55:41.253Z,76.90
2023-01-12T15:58:08.829Z,77.50
2023-01-12T16:00:36.751Z,77.60
2023-01-12T16:03:04.507Z,77.60
2023-01-12T16:05:32.272Z,77.90
2023-01-12T16:07:59.809Z,77.90
2023-01-12T16:10:30.157Z,78.10
2023-01-12T16:13:01.754Z,78.10
2023-01-12T16:15:30.351Z,78.20
2023-01-12T16:17:57.889Z,78.10
2023-01-12T16:20:25.402Z,78.20
2023-01-12T16:22:52.901Z,78.30
2023-01-12T16:25:20.514Z,78.60
2023-01-12T16:27:48.022Z,78.60
2023-01-12T16:30:16.051Z,78.70
2023-01-12T16:32:46.335Z,78.60
2023-01-12T16:35:15.570Z,78.80
2023-01-12T16:37:44.394Z,79.00
2023-01-12T16:40:12.619Z,79.10
2023-01-12T16:42:40.152Z,78.90
2023-01-12T16:45:08.660Z,78.90
2023-01-12T16:47:36.167Z,79.00
2023-01-12T16:50:04.192Z,79.10
2023-01-12T16:52:31.751Z,79.20
2023-01-12T16:54:59.248Z,79.90
2023-01-12T16:57:26.748Z,79.10
2023-01-12T16:59:54.218Z,79.20
2023-01-12T17:02:22.051Z,79.40
2023-01-12T17:04:52.140Z,79.50
2023-01-12T17:07:20.013Z,79.30
2023-01-12T17:09:47.594Z,79.40
2023-01-12T17:12:15.187Z,80.10
2023-01-12T17:14:42.811Z,79.20
2023-01-12T17:17:12.284Z,79.40
2023-01-12T17:19:44.766Z,79.50
2023-01-12T17:22:13.311Z,79.60
2023-01-12T17:24:41.677Z,79.60
2023-01-12T17:27:10.363Z,79.40
2023-01-12T17:29:38.103Z,79.50
2023-01-12T17:32:08.084Z,79.70
2023-01-12T17:34:43.112Z,79.70
2023-01-12T17:37:11.118Z,79.90
2023-01-12T17:39:40.438Z,79.90
2023-01-12T17:42:28.351Z,80.00
2023-01-12T17:44:55.843Z,79.80
2023-01-12T17:47:24.577Z,80.00
2023-01-12T17:49:54.000Z,79.80
2023-01-12T17:52:21.733Z,80.00
2023-01-12T17:54:52.297Z,79.90
2023-01-12T17:57:19.995Z,80.00
2023-01-12T17:59:49.741Z,79.80
2023-01-12T18:02:18.128Z,79.80
2023-01-12T18:04:46.424Z,79.60
2023-01-12T18:07:13.947Z,79.60
2023-01-12T18:09:41.949Z,79.80
2023-01-12T18:12:10.487Z,79.70
2023-01-12T18:14:38.348Z,79.60
2023-01-12T18:17:05.860Z,79.80
2023-01-12T18:19:33.540Z,79.80
2023-01-12T18:22:05.870Z,79.80
2023-01-12T18:24:34.567Z,79.40
2023-01-12T18:27:02.967Z,79.30
2023-01-12T18:29:30.605Z,79.20
2023-01-12T18:31:58.091Z,78.90
2023-01-12T18:34:25.636Z,79.00
2023-01-12T18:36:53.120Z,79.10
2023-01-12T18:39:21.109Z,79.00
2023-01-12T18:42:08.609Z,79.20
2023-01-12T18:44:40.029Z,79.30
2023-01-12T18:47:25.804Z,79.40
2023-01-12T18:49:57.445Z,79.20
2023-01-12T18:52:57.304Z,79.00
2023-01-12T18:55:25.235Z,79.00
2023-01-12T18:57:52.782Z,79.00
2023-01-12T19:00:22.275Z,78.80
2023-01-12T19:02:49.813Z,79.70
2023-01-12T19:05:25.668Z,78.50
2023-01-12T19:07:59.299Z,78.60
2023-01-12T19:10:29.414Z,78.30
2023-01-12T19:13:17.329Z,78.20
2023-01-12T19:16:03.478Z,78.10
2023-01-12T19:18:31.176Z,77.80
2023-01-12T19:21:21.480Z,77.90
2023-01-12T19:24:07.636Z,77.80
2023-01-12T19:26:53.713Z,77.60
2023-01-12T19:29:21.276Z,77.70
2023-01-12T19:31:48.781Z,77.80
2023-01-12T19:34:16.499Z,77.50
2023-01-12T19:36:44.324Z,77.40
2023-01-12T19:39:12.780Z,77.20
2023-01-12T19:41:58.903Z,76.80
2023-01-12T19:44:26.393Z,76.20
2023-01-12T19:46:53.862Z,76.60
2023-01-12T19:49:21.354Z,76.30
2023-01-12T19:51:49.734Z,76.70
2023-01-12T19:54:17.255Z,76.50
2023-01-12T19:56:47.032Z,76.20
2023-01-12T19:59:14.654Z,75.80
2023-01-12T20:01:42.227Z,75.90
2023-01-12T20:04:09.787Z,75.50
2023-01-12T20:06:37.312Z,75.50
2023-01-12T20:09:04.890Z,74.60
2023-01-12T20:11:32.431Z,75.10
2023-01-12T20:14:00.000Z,75.40
2023-01-12T20:16:27.568Z,75.00
2023-01-12T20:18:56.963Z,74.70
2023-01-12T20:21:24.445Z,74.60
2023-01-12T20:23:51.958Z,74.80
2023-01-12T20:26:19.577Z,74.50
2023-01-12T20:28:47.150Z,74.60
2023-01-12T20:31:16.032Z,74.40
2023-01-12T20:33:43.627Z,73.70
2023-01-12T20:36:13.626Z,74.00
2023-01-12T20:38:41.891Z,73.80
2023-01-12T20:41:10.624Z,73.40
2023-01-12T20:43:38.257Z,74.10
2023-01-12T20:46:14.031Z,73.80
2023-01-12T20:48:42.887Z,74.10
2023-01-12T20:51:13.562Z,74.30
2023-01-12T20:53:41.447Z,74.30
2023-01-12T20:56:09.938Z,74.10
2023-01-12T20:58:37.504Z,73.40
2023-01-12T21:01:12.815Z,73.80
2023-01-12T21:03:41.076Z,73.60
2023-01-12T21:06:15.599Z,73.60
2023-01-12T21:08:45.733Z,73.10
2023-01-12T21:11:17.062Z,73.20
2023-01-12T21:13:45.471Z,72.80
2023-01-12T21:16:18.313Z,73.50
2023-01-12T21:18:46.458Z,73.70
2023-01-12T21:21:14.065Z,73.30
2023-01-12T21:23:41.552Z,73.70
2023-01-12T21:26:10.789Z,73.70
2023-01-12T21:28:40.185Z,73.80
2023-01-12T21:31:10.506Z,73.80
2023-01-12T21:33:38.492Z,73.70
2023-01-12T21:36:06.669Z,74.20
2023-01-12T21:38:34.196Z,74.10
2023-01-12T21:41:05.928Z,74.00
2023-01-12T21:43:34.512Z,74.10
2023-01-12T21:46:09.257Z,74.50
2023-01-12T21:48:37.060Z,74.50
2023-01-12T21:51:07.581Z,74.60
2023-01-12T21:53:35.616Z,74.70
2023-01-12T21:56:05.069Z,74.70
2023-01-12T21:58:35.389Z,74.60
2023-01-12T22:01:14.903Z,74.60
2023-01-12T22:03:42.832Z,74.30
2023-01-12T22:06:12.752Z,74.30
2023-01-12T22:08:41.827Z,74.60
2023-01-12T22:11:14.111Z,74.70
2023-01-12T22:13:43.345Z,74.60
2023-01-12T22:16:14.350Z,74.70
2023-01-12T22:18:49.226Z,74.40
2023-01-12T22:21:19.146Z,74.40
2023-01-12T22:23:47.575Z,74.60
2023-01-12T22:26:16.760Z,74.60
2023-01-12T22:28:47.611Z,74.10
2023-01-12T22:31:24.370Z,74.20
2023-01-12T22:34:04.759Z,74.10
2023-01-12T22:36:35.322Z,73.70
2023-01-12T22:39:05.695Z,74.00
2023-01-12T22:41:33.179Z,73.70
2023-01-12T22:44:00.871Z,73.70
2023-01-12T22:46:28.706Z,73.80
2023-01-12T22:48:59.301Z,73.60
2023-01-12T22:51:29.499Z,73.60
2023-01-12T22:53:57.746Z,73.50
2023-01-12T22:56:25.736Z,73.30
2023-01-12T22:58:55.414Z,73.40
2023-01-12T23:01:25.599Z,73.20
2023-01-12T23:03:57.732Z,72.90
2023-01-12T23:06:26.727Z,73.00
2023-01-12T23:08:54.678Z,73.20
2023-01-12T23:11:27.064Z,73.30
2023-01-12T23:13:55.034Z,73.30
2023-01-12T23:16:23.465Z,73.40
2023-01-12T23:18:51.576Z,73.70
2023-01-12T23:21:27.871Z,73.50
2023-01-12T23:23:58.842Z,73.70
2023-01-12T23:26:33.564Z,73.70
2023-01-12T23:29:03.097Z,73.70
2023-01-12T23:31:33.644Z,74.10
2023-01-12T23:34:01.790Z,74.00
2023-01-12T23:36:31.028Z,74.30
2023-01-12T23:39:05.206Z,74.20
2023-01-12T23:41:37.816Z,74.40
2023-01-12T23:44:09.221Z,74.70
2023-01-12T23:46:40.447Z,74.50
2023-01-12T23:49:09.662Z,74.80
2023-01-12T23:51:37.404Z,75.10
2023-01-12T23:54:05.259Z,75.10
2023-01-12T23:56:34.627Z,75.40
2023-01-12T23:59:02.459Z,75.50
